Time;durP1;ratioP1;P1;durP2;ratioP2;P2;SDS_P1;SDS_P2;PMS_P1;PMS_P2;Temp;Humidity;BMP_temperature;BMP_pressure;BME280_temperature;BME280_humidity;BME280_pressure;Samples;Min_cycle;Max_cycle;Signal;HPM_P1;HPM_P2
2022/06/27 00:02:23;;;;;;;17.15;6.60;;;;;;;19.37;85.17;92696.75;5023817;28;20029;-77
2022/06/27 00:04:49;;;;;;;15.40;5.22;;;;;;;19.33;84.46;92689.44;5014749;28;20034;-77
2022/06/27 00:07:15;;;;;;;19.48;5.53;;;;;;;19.33;85.56;92692.09;5010933;28;20033;-77
2022/06/27 00:09:41;;;;;;;18.13;5.68;;;;;;;19.29;85.64;92685.91;5026546;28;20029;-77
2022/06/27 00:12:08;;;;;;;15.60;5.55;;;;;;;19.26;85.08;92688.47;5027965;28;20502;-77
2022/06/27 00:14:34;;;;;;;14.90;5.35;;;;;;;19.25;84.45;92684.25;5024424;28;20040;-77
2022/06/27 00:17:00;;;;;;;15.27;5.57;;;;;;;19.23;84.62;92681.97;5013539;28;20045;-77
2022/06/27 00:19:25;;;;;;;12.48;5.70;;;;;;;19.21;85.73;92683.41;5031474;28;20510;-77
2022/06/27 00:21:51;;;;;;;12.35;5.40;;;;;;;19.19;84.72;92680.31;5019716;28;20030;-77
2022/06/27 00:24:16;;;;;;;15.13;5.22;;;;;;;19.18;84.02;92679.53;5034871;28;20095;-77
2022/06/27 00:26:42;;;;;;;14.70;5.65;;;;;;;19.17;83.52;92685.19;5031452;28;20090;-77
2022/06/27 00:29:08;;;;;;;18.15;5.50;;;;;;;19.17;83.60;92683.28;5010864;28;20030;-77
2022/06/27 00:31:33;;;;;;;18.05;5.68;;;;;;;19.18;83.46;92689.38;5024663;28;20420;-77
2022/06/27 00:33:59;;;;;;;20.15;6.40;;;;;;;19.19;83.00;92680.31;5016711;28;20057;-77
2022/06/27 00:36:25;;;;;;;17.55;6.07;;;;;;;19.19;82.58;92680.31;5012079;28;20046;-77
2022/06/27 00:38:50;;;;;;;22.58;6.72;;;;;;;19.20;82.64;92677.31;5009918;28;20038;-77
2022/06/27 00:41:16;;;;;;;19.92;5.70;;;;;;;19.18;83.10;92684.81;5013310;28;20057;-77
2022/06/27 00:43:43;;;;;;;16.98;5.65;;;;;;;19.16;82.85;92675.66;5007497;28;20132;-76
2022/06/27 00:46:09;;;;;;;11.70;5.38;;;;;;;19.17;82.46;92679.88;5014138;28;20026;-77
2022/06/27 00:48:35;;;;;;;18.08;6.40;;;;;;;19.13;83.84;92685.84;5010102;28;20030;-77
2022/06/27 00:51:00;;;;;;;14.35;6.00;;;;;;;19.09;84.19;92682.31;5011646;28;20063;-77
2022/06/27 00:53:28;;;;;;;14.43;6.15;;;;;;;19.06;83.48;92682.97;5020908;28;20037;-77
2022/06/27 00:55:54;;;;;;;17.67;5.88;;;;;;;19.01;83.15;92677.13;4997148;28;20053;-77
2022/06/27 00:58:20;;;;;;;31.13;6.85;;;;;;;18.99;82.89;92682.75;5009923;28;20478;-77
2022/06/27 01:00:46;;;;;;;13.65;5.40;;;;;;;18.97;82.35;92679.66;5021963;28;20129;-77
2022/06/27 01:03:11;;;;;;;15.27;5.72;;;;;;;18.96;82.34;92688.75;5018551;28;20032;-77
2022/06/27 01:05:37;;;;;;;17.83;5.90;;;;;;;18.96;82.03;92682.66;5019997;28;20403;-77
2022/06/27 01:08:02;;;;;;;17.85;5.47;;;;;;;18.95;82.12;92686.41;5030415;28;20120;-77
2022/06/27 01:10:28;;;;;;;18.88;6.00;;;;;;;18.91;82.02;92676.47;5022480;28;20483;-77
2022/06/27 01:12:55;;;;;;;16.30;5.30;;;;;;;18.89;81.92;92684.00;5023784;28;20829;-77
2022/06/27 01:15:21;;;;;;;18.38;5.95;;;;;;;18.87;82.39;92685.44;5012165;28;20105;-77
2022/06/27 01:17:47;;;;;;;16.92;6.30;;;;;;;18.80;82.80;92688.66;5021550;28;20097;-77
2022/06/27 01:20:13;;;;;;;16.60;5.07;;;;;;;18.78;82.28;92688.19;5009309;28;20056;-77
2022/06/27 01:22:39;;;;;;;17.10;6.40;;;;;;;18.77;81.76;92691.94;5018585;28;20387;-77
2022/06/27 01:25:06;;;;;;;20.33;5.50;;;;;;;18.76;81.77;92685.06;5018301;28;20503;-77
2022/06/27 01:27:32;;;;;;;19.75;5.65;;;;;;;18.76;81.07;92669.16;4997146;28;20060;-77
2022/06/27 01:29:58;;;;;;;21.08;5.35;;;;;;;18.77;80.86;92673.38;5028596;28;20393;-77
2022/06/27 01:32:26;;;;;;;23.60;6.13;;;;;;;18.76;80.74;92677.13;5013259;28;20072;-77
2022/06/27 01:34:53;;;;;;;20.63;5.70;;;;;;;18.74;81.03;92666.06;5010941;28;20124;-77
2022/06/27 01:37:19;;;;;;;16.98;5.15;;;;;;;18.72;80.86;92673.56;5009305;28;20034;-77
2022/06/27 01:39:45;;;;;;;21.67;5.68;;;;;;;18.73;81.30;92675.13;5011175;28;20250;-77
2022/06/27 01:42:12;;;;;;;21.00;7.45;;;;;;;18.71;81.29;92666.72;4999156;28;20503;-77
2022/06/27 01:44:37;;;;;;;22.05;5.93;;;;;;;18.70;81.19;92665.94;5001680;28;20037;-77
2022/06/27 01:47:08;;;;;;;15.38;5.95;;;;;;;18.69;80.93;92677.66;5024752;28;20031;-77
2022/06/27 01:49:35;;;;;;;13.48;5.95;;;;;;;18.69;81.04;92675.03;5013340;28;20037;-77
2022/06/27 01:52:03;;;;;;;21.27;5.05;;;;;;;18.69;80.57;92680.31;5008046;28;20034;-77
2022/06/27 01:54:29;;;;;;;16.70;5.03;;;;;;;18.71;80.13;92687.94;5026219;28;20122;-77
2022/06/27 01:56:56;;;;;;;19.88;5.28;;;;;;;18.72;80.00;92682.31;5009357;28;20153;-77
2022/06/27 01:59:29;;;;;;;12.27;4.93;;;;;;;18.74;79.72;92674.03;5013977;28;20049;-77
2022/06/27 02:01:59;;;;;;;16.20;4.75;;;;;;;18.77;79.62;92678.69;5028096;28;20030;-77
2022/06/27 02:04:26;;;;;;;18.92;5.55;;;;;;;18.79;79.59;92679.13;5031061;28;20075;-77
2022/06/27 02:06:54;;;;;;;19.60;4.85;;;;;;;18.79;79.62;92681.78;5032723;28;20030;-77
2022/06/27 02:09:19;;;;;;;17.00;5.50;;;;;;;18.79;79.90;92667.75;5032655;28;20033;-77
2022/06/27 02:11:48;;;;;;;15.15;5.10;;;;;;;18.79;79.46;92662.44;5027712;28;20052;-77
2022/06/27 02:14:14;;;;;;;17.67;5.18;;;;;;;18.75;79.92;92656.22;5044783;28;20036;-77
2022/06/27 02:16:42;;;;;;;18.83;5.13;;;;;;;18.77;80.20;92657.47;5052526;28;20268;-77
2022/06/27 02:19:13;;;;;;;21.50;5.32;;;;;;;18.75;80.44;92659.66;5031986;28;20048;-77
2022/06/27 02:21:39;;;;;;;18.52;5.35;;;;;;;18.73;80.02;92667.97;5014008;28;20034;-77
2022/06/27 02:24:07;;;;;;;15.95;4.60;;;;;;;18.74;80.33;92671.38;5016550;28;20610;-76
2022/06/27 02:26:33;;;;;;;17.98;5.50;;;;;;;18.71;80.54;92648.94;5022537;28;20034;-77
2022/06/27 02:29:00;;;;;;;17.92;5.32;;;;;;;18.69;80.20;92653.81;5031455;28;20048;-77
2022/06/27 02:31:29;;;;;;;20.05;4.90;;;;;;;18.70;80.14;92659.88;5019278;28;20388;-77
2022/06/27 02:33:56;;;;;;;17.50;5.15;;;;;;;18.68;80.00;92656.78;5018616;28;20123;-77
2022/06/27 02:36:37;;;;;;;15.05;5.45;;;;;;;18.64;80.41;92654.03;5023647;28;20045;-76
2022/06/27 02:39:04;;;;;;;13.48;5.30;;;;;;;18.63;80.57;92659.66;5013562;28;20095;-77
2022/06/27 02:41:33;;;;;;;28.23;6.75;;;;;;;18.60;80.43;92655.00;5013900;28;20108;-77
2022/06/27 02:44:10;;;;;;;14.45;5.10;;;;;;;18.58;80.77;92652.72;5016647;28;20135;-77
2022/06/27 02:46:38;;;;;;;17.58;5.07;;;;;;;18.58;80.33;92646.63;5028736;28;20411;-77
2022/06/27 02:49:04;;;;;;;17.55;5.18;;;;;;;18.56;80.09;92644.31;5045106;28;20030;-77
2022/06/27 02:51:36;;;;;;;14.07;5.18;;;;;;;18.56;79.94;92651.50;4997473;28;20043;-77
2022/06/27 02:54:10;;;;;;;17.02;6.50;;;;;;;18.55;80.17;92645.41;5012586;28;20034;-77
2022/06/27 02:57:04;;;;;;;15.38;4.93;;;;;;;18.51;80.00;92640.00;5021998;28;20045;-77
2022/06/27 02:59:37;;;;;;;17.42;5.03;;;;;;;18.50;80.31;92643.75;5033016;28;20318;-77
2022/06/27 03:02:09;;;;;;;14.73;5.38;;;;;;;18.47;80.18;92644.41;5025887;28;20033;-77
2022/06/27 03:05:13;;;;;;;13.80;5.63;;;;;;;18.44;80.81;92642.44;5030322;28;20546;-77
2022/06/27 03:07:41;;;;;;;14.70;5.15;;;;;;;18.44;80.31;92637.13;5015284;28;20456;-77
2022/06/27 03:10:09;;;;;;;13.60;5.10;;;;;;;18.44;80.02;92629.19;5029013;28;20084;-77
2022/06/27 03:12:34;;;;;;;18.83;5.72;;;;;;;18.44;80.12;92637.13;5034727;28;20571;-77
2022/06/27 03:15:00;;;;;;;14.25;5.70;;;;;;;18.42;79.74;92633.28;5028344;28;20045;-77
2022/06/27 03:17:25;;;;;;;18.00;4.95;;;;;;;18.41;79.90;92645.72;5031329;28;20065;-77
2022/06/27 03:20:29;;;;;;;13.50;5.13;;;;;;;18.40;79.60;92649.50;5041045;28;20155;-77
2022/06/27 03:23:31;;;;;;;20.33;4.93;;;;;;;18.37;79.90;92652.03;5042910;28;20052;-77
2022/06/27 03:25:57;;;;;;;18.92;4.93;;;;;;;18.34;80.27;92647.38;5015662;28;20456;-77
2022/06/27 03:28:29;;;;;;;14.70;5.75;;;;;;;18.29;80.29;92643.06;5012239;28;20399;-77
2022/06/27 03:30:57;;;;;;;20.30;4.75;;;;;;;18.29;80.29;92645.72;5007136;28;20125;-77
2022/06/27 03:33:24;;;;;;;15.82;5.20;;;;;;;18.28;80.17;92644.16;5001076;28;20086;-77
2022/06/27 03:35:57;;;;;;;16.88;5.47;;;;;;;18.28;80.09;92644.16;5030558;28;20038;-77
2022/06/27 03:38:23;;;;;;;13.07;5.15;;;;;;;18.28;79.52;92644.97;5031045;28;20129;-77
2022/06/27 03:40:48;;;;;;;24.40;5.78;;;;;;;18.30;79.38;92641.97;5010681;28;20117;-77
2022/06/27 03:43:15;;;;;;;11.95;5.07;;;;;;;18.29;80.17;92635.13;5031802;28;20064;-77
2022/06/27 03:45:41;;;;;;;20.15;5.18;;;;;;;18.28;80.57;92639.66;5005902;28;20034;-76
2022/06/27 03:48:07;;;;;;;12.25;4.63;;;;;;;18.27;80.27;92642.63;5010210;28;20134;-77
2022/06/27 03:50:34;;;;;;;14.75;4.90;;;;;;;18.28;79.98;92649.47;5011143;28;20037;-77
2022/06/27 03:53:00;;;;;;;15.30;4.65;;;;;;;18.29;80.24;92648.38;5026646;28;20036;-77
2022/06/27 03:55:29;;;;;;;14.80;4.78;;;;;;;18.29;80.47;92658.97;5014140;28;20135;-77
2022/06/27 03:57:57;;;;;;;22.45;5.43;;;;;;;18.30;80.39;92653.31;5014693;28;20567;-77
2022/06/27 04:00:38;;;;;;;13.88;5.53;;;;;;;18.32;80.37;92655.66;5028639;28;20088;-77
2022/06/27 04:03:06;;;;;;;23.15;5.35;;;;;;;18.34;80.26;92653.47;5013841;28;20026;-77
2022/06/27 04:05:58;;;;;;;12.07;5.10;;;;;;;18.38;79.77;92656.22;5017407;28;20069;-77
2022/06/27 04:08:23;;;;;;;15.45;6.70;;;;;;;18.41;79.92;92650.25;5020415;28;20131;-77
2022/06/27 04:10:50;;;;;;;19.35;5.28;;;;;;;18.43;80.41;92651.47;4998441;28;20124;-77
2022/06/27 04:13:20;;;;;;;14.70;5.15;;;;;;;18.45;80.52;92654.56;5030866;28;20470;-77
2022/06/27 04:16:04;;;;;;;12.52;4.70;;;;;;;18.48;79.96;92648.59;5019850;28;20103;-77
2022/06/27 04:18:54;;;;;;;17.83;5.95;;;;;;;18.52;79.84;92654.03;5004144;28;20583;-77
2022/06/27 04:21:49;;;;;;;15.27;5.10;;;;;;;18.56;79.65;92654.91;5022617;28;20054;-77
2022/06/27 04:24:36;;;;;;;21.23;6.30;;;;;;;18.59;79.78;92648.16;5029657;28;20042;-77
2022/06/27 04:27:05;;;;;;;24.00;5.20;;;;;;;18.63;79.94;92649.81;5017587;28;20049;-77
2022/06/27 04:29:31;;;;;;;11.60;4.55;;;;;;;18.67;80.15;92647.28;5022538;28;20033;-77
2022/06/27 04:31:57;;;;;;;16.25;5.25;;;;;;;18.71;80.35;92648.16;5016339;28;20034;-77
2022/06/27 04:34:23;;;;;;;19.10;5.63;;;;;;;18.78;80.09;92645.78;5014691;28;20057;-77
2022/06/27 04:36:49;;;;;;;20.73;5.28;;;;;;;18.87;80.07;92648.31;5026564;28;20026;-77
2022/06/27 04:39:20;;;;;;;19.55;5.05;;;;;;;18.93;79.74;92647.72;5026415;28;20123;-77
2022/06/27 04:41:57;;;;;;;18.98;5.03;;;;;;;19.05;79.66;92654.13;5025675;28;20482;-77
2022/06/27 04:44:23;;;;;;;18.05;5.68;;;;;;;19.14;80.81;92652.91;5014265;28;21456;-77
2022/06/27 04:46:49;;;;;;;14.35;4.80;;;;;;;19.25;80.17;92658.53;5008898;28;20112;-77
2022/06/27 04:49:25;;;;;;;17.45;4.90;;;;;;;19.38;79.51;92655.81;5007402;28;20042;-77
2022/06/27 04:51:51;;;;;;;18.05;5.20;;;;;;;19.46;78.97;92658.34;5008616;28;20197;-77
2022/06/27 04:54:22;;;;;;;18.52;5.43;;;;;;;19.54;79.11;92661.97;5039578;28;20509;-77
2022/06/27 04:56:48;;;;;;;23.55;5.60;;;;;;;19.65;78.86;92656.94;5027730;28;20114;-77
2022/06/27 04:59:15;;;;;;;17.17;5.43;;;;;;;19.72;78.81;92655.31;5028812;28;20044;-77
2022/06/27 05:01:43;;;;;;;15.90;5.43;;;;;;;19.80;79.21;92660.81;5015692;28;20030;-77
2022/06/27 05:04:12;;;;;;;14.80;5.28;;;;;;;19.88;79.75;92665.16;4988502;28;20072;-77
2022/06/27 05:06:44;;;;;;;16.95;5.18;;;;;;;19.99;79.50;92666.22;5026958;28;20029;-77
2022/06/27 05:09:09;;;;;;;18.15;5.43;;;;;;;20.09;79.58;92668.41;5018186;28;20030;-77
2022/06/27 05:11:35;;;;;;;16.00;5.15;;;;;;;20.16;79.73;92671.25;5028013;28;20384;-77
2022/06/27 05:14:01;;;;;;;14.35;5.57;;;;;;;20.22;79.86;92668.31;4995888;28;20034;-77
2022/06/27 05:16:39;;;;;;;26.10;5.85;;;;;;;20.26;80.14;92664.63;5015159;28;20502;-77
2022/06/27 05:19:05;;;;;;;15.48;5.43;;;;;;;20.36;79.81;92676.66;5017104;28;20113;-77
2022/06/27 05:21:31;;;;;;;21.48;5.03;;;;;;;20.43;79.56;92679.50;5024410;28;20032;-77
2022/06/27 05:23:57;;;;;;;15.35;5.40;;;;;;;20.52;80.17;92672.13;5027539;28;20038;-77
2022/06/27 05:26:22;;;;;;;15.73;5.45;;;;;;;20.63;79.87;92672.41;5015469;28;20586;-77
2022/06/27 05:28:48;;;;;;;22.35;5.57;;;;;;;20.69;79.80;92679.03;5029526;28;20030;-77
2022/06/27 05:31:14;;;;;;;19.42;5.25;;;;;;;20.76;79.51;92686.38;5023444;28;20408;-77
2022/06/27 05:33:40;;;;;;;19.17;4.65;;;;;;;20.82;78.14;92687.66;5014432;28;20685;-77
2022/06/27 05:36:06;;;;;;;15.63;4.90;;;;;;;20.87;76.91;92683.97;4993167;28;20037;-77
2022/06/27 05:38:32;;;;;;;16.63;5.07;;;;;;;20.90;76.87;92692.03;5029146;28;20049;-77
2022/06/27 05:41:02;;;;;;;15.15;5.30;;;;;;;20.92;76.73;92683.72;5016145;28;20384;-77
2022/06/27 05:43:28;;;;;;;17.48;5.00;;;;;;;20.95;77.66;92678.47;5045807;28;20075;-77
2022/06/27 05:45:54;;;;;;;23.15;5.30;;;;;;;21.01;78.34;92679.00;5001463;28;20036;-77
2022/06/27 05:48:40;;;;;;;20.38;5.43;;;;;;;21.08;79.29;92686.34;5016609;28;20053;-77
2022/06/27 05:51:28;;;;;;;21.77;5.85;;;;;;;21.19;79.85;92684.72;5011413;28;20030;-77
2022/06/27 05:53:56;;;;;;;17.58;5.18;;;;;;;21.30;78.69;92691.03;5011222;28;20084;-77
2022/06/27 05:56:24;;;;;;;14.32;5.22;;;;;;;21.37;78.44;92683.19;5018838;28;20084;-76
2022/06/27 05:58:51;;;;;;;19.77;5.10;;;;;;;21.46;77.16;92687.56;5028352;28;20037;-78
2022/06/27 06:01:17;;;;;;;19.45;5.07;;;;;;;21.72;75.97;92698.38;5026955;28;20383;-77
2022/06/27 06:03:43;;;;;;;18.85;5.30;;;;;;;21.85;75.20;92698.25;5039487;28;20121;-78
2022/06/27 06:06:10;;;;;;;20.13;4.70;;;;;;;21.99;75.27;92698.50;5024150;28;20105;-78
2022/06/27 06:08:37;;;;;;;13.73;4.45;;;;;;;22.21;74.28;92705.81;5036412;28;20048;-78
2022/06/27 06:11:03;;;;;;;18.80;4.75;;;;;;;22.49;73.16;92699.44;5033982;28;20030;-78
2022/06/27 06:13:29;;;;;;;17.52;4.82;;;;;;;22.52;72.54;92703.31;5027181;28;20139;-78
2022/06/27 06:15:58;;;;;;;15.52;4.63;;;;;;;23.03;71.82;92695.78;5037580;28;20041;-78
2022/06/27 06:18:27;;;;;;;19.48;5.05;;;;;;;23.49;69.22;92701.00;5028465;28;20033;-78
2022/06/27 06:20:52;;;;;;;17.65;4.93;;;;;;;23.37;67.47;92703.91;5028521;28;20036;-78
2022/06/27 06:23:18;;;;;;;24.75;4.90;;;;;;;23.54;67.41;92696.47;5027691;28;20049;-78
2022/06/27 06:25:45;;;;;;;17.13;5.68;;;;;;;23.58;68.70;92708.75;5020160;28;20038;-78
2022/06/27 06:28:11;;;;;;;21.20;5.32;;;;;;;23.92;68.24;92711.50;5027421;28;20021;-79
2022/06/27 06:30:37;;;;;;;16.58;5.15;;;;;;;23.93;67.26;92710.34;5033035;28;20045;-78
2022/06/27 06:33:05;;;;;;;17.65;4.88;;;;;;;23.75;61.90;92707.44;5011040;28;20631;-81
2022/06/27 06:35:34;;;;;;;18.45;5.43;;;;;;;23.83;65.73;92714.44;5038713;28;20068;-79
2022/06/27 06:38:01;;;;;;;14.85;5.55;;;;;;;23.38;69.67;92710.78;5031656;28;20184;-81
2022/06/27 06:40:28;;;;;;;15.27;5.40;;;;;;;23.31;70.79;92715.25;5031587;28;20095;-79
2022/06/27 06:42:54;;;;;;;19.30;5.32;;;;;;;23.28;71.21;92714.03;5031120;28;20045;-79
2022/06/27 06:45:39;;;;;;;19.10;6.07;;;;;;;23.41;72.93;92710.03;5036406;28;20061;-80
2022/06/27 06:48:25;;;;;;;17.05;4.95;;;;;;;23.88;67.85;92711.44;5037717;28;20075;-80
2022/06/27 06:50:54;;;;;;;14.57;5.05;;;;;;;24.02;61.28;92710.06;5015925;28;20380;-80
2022/06/27 06:53:20;;;;;;;15.13;4.75;;;;;;;23.98;59.54;92711.91;5025864;28;20025;-80
2022/06/27 06:55:45;;;;;;;20.48;5.30;;;;;;;23.87;58.99;92714.50;5034380;28;20056;-80
2022/06/27 06:58:11;;;;;;;13.15;4.20;;;;;;;23.97;57.78;92705.81;5036807;28;20045;-79
2022/06/27 07:00:38;;;;;;;14.93;5.25;;;;;;;23.96;64.61;92700.81;5033622;28;20099;-79
2022/06/27 07:03:04;;;;;;;16.92;4.32;;;;;;;23.82;63.53;92715.59;5020885;28;20111;-79
2022/06/27 07:05:31;;;;;;;14.95;5.18;;;;;;;23.80;62.30;92709.81;5031586;28;20089;-78
2022/06/27 07:07:58;;;;;;;16.77;4.38;;;;;;;24.15;59.00;92706.00;5034666;28;20040;-79
2022/06/27 07:10:25;;;;;;;15.57;5.10;;;;;;;24.27;57.62;92697.75;5021484;28;20038;-78
2022/06/27 07:12:51;;;;;;;13.15;4.28;;;;;;;24.42;55.27;92700.56;5031572;28;20036;-78
2022/06/27 07:15:18;;;;;;;28.88;4.25;;;;;;;24.75;56.12;92697.06;5031773;28;20041;-78
2022/06/27 07:17:48;;;;;;;15.93;3.80;;;;;;;24.83;54.21;92705.94;5016791;28;20021;-78
2022/06/27 07:20:19;;;;;;;24.77;4.43;;;;;;;24.71;54.44;92706.97;5026255;28;20458;-78
2022/06/27 07:22:48;;;;;;;17.02;3.97;;;;;;;24.66;51.77;92705.41;5035656;28;20055;-79
2022/06/27 07:25:14;;;;;;;24.05;5.70;;;;;;;24.18;67.78;92701.84;5015021;28;20038;-78
2022/06/27 07:27:42;;;;;;;18.27;5.40;;;;;;;23.87;68.71;92709.16;5026880;28;20049;-78
2022/06/27 07:30:09;;;;;;;17.90;4.75;;;;;;;23.96;67.07;92706.16;5043029;28;20064;-78
2022/06/27 07:32:39;;;;;;;17.52;4.82;;;;;;;24.18;63.48;92709.84;5027291;28;20049;-78
2022/06/27 07:35:09;;;;;;;18.80;4.55;;;;;;;24.45;57.88;92710.53;5032426;28;20086;-78
2022/06/27 07:37:38;;;;;;;18.80;4.05;;;;;;;24.66;56.35;92705.41;5027761;28;20145;-78
2022/06/27 07:40:04;;;;;;;17.08;4.15;;;;;;;24.95;58.33;92711.00;5025800;28;20179;-78
2022/06/27 07:42:30;;;;;;;16.60;4.38;;;;;;;25.20;51.95;92705.88;5033756;28;20048;-78
2022/06/27 07:44:56;;;;;;;14.93;5.03;;;;;;;24.99;64.22;92703.00;5033259;28;20046;-78
2022/06/27 07:47:21;;;;;;;16.50;4.68;;;;;;;25.00;65.09;92710.66;5028570;28;20025;-78
2022/06/27 07:49:47;;;;;;;16.63;3.92;;;;;;;25.21;55.11;92701.28;5032518;28;20391;-79
2022/06/27 07:52:13;;;;;;;13.52;3.95;;;;;;;25.53;54.78;92701.47;5030445;28;20057;-79
2022/06/27 07:54:38;;;;;;;12.48;3.92;;;;;;;25.59;61.22;92704.56;5033023;28;20413;-79
2022/06/27 07:57:05;;;;;;;13.65;5.47;;;;;;;25.20;64.41;92705.88;5037094;28;20392;-79
2022/06/27 07:59:31;;;;;;;16.33;5.28;;;;;;;24.68;66.92;92711.16;5040999;28;20112;-79
2022/06/27 08:01:56;;;;;;;25.85;5.82;;;;;;;24.62;65.96;92715.31;5013812;28;20046;-79
2022/06/27 08:04:23;;;;;;;78.05;9.98;;;;;;;24.65;64.92;92708.44;5011406;28;20035;-79
2022/06/27 08:06:50;;;;;;;28.63;5.82;;;;;;;24.64;64.85;92713.03;5025088;28;20029;-80
2022/06/27 08:09:18;;;;;;;24.92;6.00;;;;;;;24.66;62.96;92716.13;5023091;28;20563;-80
2022/06/27 08:11:44;;;;;;;20.55;5.07;;;;;;;24.74;62.86;92711.59;5018572;28;20082;-79
2022/06/27 08:14:12;;;;;;;21.15;5.63;;;;;;;24.99;61.73;92711.78;5021608;28;20087;-78
2022/06/27 08:16:39;;;;;;;14.95;4.07;;;;;;;25.24;57.52;92712.03;5034408;28;20037;-79
2022/06/27 08:19:07;;;;;;;15.43;4.20;;;;;;;25.28;55.34;92712.78;5027340;28;20064;-79
2022/06/27 08:21:34;;;;;;;16.73;5.32;;;;;;;25.48;63.46;92715.97;5022055;28;20092;-80
2022/06/27 08:24:03;;;;;;;35.17;4.55;;;;;;;25.68;55.40;92719.16;5029290;28;20044;-79
2022/06/27 08:26:30;;;;;;;17.40;4.95;;;;;;;25.80;58.24;92719.97;5032427;28;20037;-80
2022/06/27 08:29:02;;;;;;;21.98;5.65;;;;;;;25.73;59.56;92716.13;5029227;28;20037;-79
2022/06/27 08:31:29;;;;;;;;;;;;;;;25.49;63.44;92722.91;5031062;28;20036;-79
2022/06/27 08:33:58;;;;;;;19.88;4.60;;;;;;;25.89;57.91;92718.50;5015594;28;19921;-79
2022/06/27 08:36:26;;;;;;;14.02;4.57;;;;;;;26.24;55.62;92721.72;5014161;28;20034;-79
2022/06/27 08:38:52;;;;;;;19.80;5.20;;;;;;;26.29;59.29;92719.44;5030086;28;20030;-79
2022/06/27 08:41:20;;;;;;;23.73;5.95;;;;;;;25.92;60.51;92725.06;5016370;28;20042;-79
2022/06/27 08:43:48;;;;;;;19.40;5.75;;;;;;;25.78;60.90;92725.72;5047489;28;20464;-79
2022/06/27 08:46:16;;;;;;;23.00;6.00;;;;;;;25.36;60.93;92724.34;5013702;28;20034;-79
2022/06/27 08:48:45;;;;;;;24.92;5.13;;;;;;;25.77;59.42;92727.63;5020496;28;20064;-79
2022/06/27 08:51:11;;;;;;;16.20;4.82;;;;;;;26.17;56.70;92722.47;5031909;28;20029;-82
2022/06/27 08:53:38;;;;;;;12.20;4.47;;;;;;;26.37;52.95;92728.28;5034656;28;20044;-82
2022/06/27 08:56:09;;;;;;;17.98;4.25;;;;;;;26.30;51.37;92728.25;5038743;28;20057;-80
2022/06/27 08:58:35;;;;;;;14.18;4.00;;;;;;;26.32;50.95;92732.13;5023159;28;20121;-79
2022/06/27 09:01:01;;;;;;;17.35;4.20;;;;;;;26.45;52.22;92732.50;5014144;28;20026;-80
2022/06/27 09:03:26;;;;;;;17.17;4.40;;;;;;;25.81;53.35;92733.03;5015666;28;20132;-79
2022/06/27 09:06:04;;;;;;;17.23;4.57;;;;;;;25.96;54.24;92725.81;5016073;28;20042;-80
2022/06/27 09:08:36;;;;;;;15.82;4.00;;;;;;;26.12;50.68;92733.56;5015528;28;20030;-79
2022/06/27 09:11:03;;;;;;;22.60;4.50;;;;;;;26.32;53.33;92728.63;5033769;28;20042;-80
2022/06/27 09:13:30;;;;;;;12.48;4.25;;;;;;;26.74;55.86;92735.28;5020535;28;20037;-79
2022/06/27 09:16:01;;;;;;;17.35;5.50;;;;;;;26.89;58.17;92736.09;5035682;28;20033;-79
2022/06/27 09:18:37;;;;;;;13.80;4.47;;;;;;;26.72;52.04;92734.91;5039938;28;20076;-80
2022/06/27 09:21:12;;;;;;;15.73;4.28;;;;;;;26.58;53.79;92736.41;5031857;28;20089;-80
2022/06/27 09:23:51;;;;;;;14.98;4.75;;;;;;;26.67;51.50;92733.34;5038499;28;20029;-81
2022/06/27 09:26:25;;;;;;;19.33;4.38;;;;;;;26.98;54.45;92733.78;5039662;28;20076;-80
2022/06/27 09:28:54;;;;;;;15.50;4.35;;;;;;;26.95;54.31;92742.59;5038222;28;20034;-81
2022/06/27 09:31:26;;;;;;;15.43;4.72;;;;;;;26.82;51.42;92736.06;5039735;28;20044;-80
2022/06/27 09:34:05;;;;;;;;;;;;;;;26.93;53.53;92734.16;5039457;28;20499;-80
2022/06/27 09:36:32;;;;;;;17.45;4.93;;;;;;;27.15;55.08;92734.91;5019181;28;19917;-80
2022/06/27 09:38:59;;;;;;;12.65;4.07;;;;;;;27.37;51.04;92735.72;5035323;28;20111;-81
2022/06/27 09:41:30;;;;;;;17.13;4.63;;;;;;;27.36;52.15;92734.97;5036643;28;20411;-80
2022/06/27 09:44:03;;;;;;;12.60;4.20;;;;;;;27.46;50.70;92743.38;5039827;28;20056;-81
2022/06/27 09:46:35;;;;;;;17.65;4.82;;;;;;;27.54;50.90;92734.94;5034933;28;20038;-81
2022/06/27 09:49:03;;;;;;;12.48;4.70;;;;;;;27.63;49.03;92745.28;5038931;28;20025;-81
2022/06/27 09:51:30;;;;;;;16.83;4.53;;;;;;;27.38;49.58;92742.63;5019527;28;20025;-81
2022/06/27 09:54:00;;;;;;;18.92;3.85;;;;;;;27.39;50.39;92738.78;5036404;28;20488;-81
2022/06/27 09:56:29;;;;;;;14.45;4.45;;;;;;;27.54;51.02;92745.69;5033733;28;20041;-80
2022/06/27 09:58:55;;;;;;;19.67;4.78;;;;;;;27.46;54.93;92732.63;5030126;28;20091;-81
2022/06/27 10:01:20;;;;;;;14.77;4.57;;;;;;;27.45;53.12;92739.94;5036664;28;20040;-81
2022/06/27 10:03:46;;;;;;;17.83;4.43;;;;;;;27.54;48.71;92739.53;5031281;28;20269;-80
2022/06/27 10:06:15;;;;;;;15.43;4.07;;;;;;;27.25;47.22;92739.56;5040944;28;20039;-80
2022/06/27 10:08:48;;;;;;;20.67;4.32;;;;;;;26.70;51.02;92743.31;5032293;28;20512;-80
2022/06/27 10:11:14;;;;;;;14.63;4.03;;;;;;;26.57;48.87;92740.25;5037546;28;20046;-80
2022/06/27 10:13:44;;;;;;;21.08;4.57;;;;;;;26.63;49.07;92746.00;5027479;28;20033;-80
2022/06/27 10:16:13;;;;;;;18.88;4.22;;;;;;;26.32;51.82;92742.06;5035116;28;20044;-79
2022/06/27 10:18:57;;;;;;;14.82;5.05;;;;;;;26.57;51.72;92734.88;5028511;28;20137;-80
2022/06/27 10:21:29;;;;;;;18.00;3.70;;;;;;;26.78;50.62;92733.38;5043654;28;20398;-79
2022/06/27 10:24:21;;;;;;;15.25;4.13;;;;;;;26.98;50.07;92731.84;5030875;28;20033;-79
2022/06/27 10:26:48;;;;;;;;;;;;;;;26.98;49.53;92731.84;5037623;28;20047;-80
2022/06/27 10:29:45;;;;;;;24.80;4.78;;;;;;;27.04;49.10;92734.91;5020362;28;19909;-82
2022/06/27 10:32:41;;;;;;;12.63;3.95;;;;;;;26.67;49.90;92730.69;5027968;28;20057;-79
2022/06/27 10:35:11;;;;;;;18.08;3.80;;;;;;;26.93;50.27;92724.19;5036911;28;20049;-81
2022/06/27 10:37:41;;;;;;;18.13;4.18;;;;;;;27.09;49.70;92723.03;5026023;28;20539;-81
2022/06/27 10:40:18;;;;;;;13.65;3.65;;;;;;;26.76;49.38;92723.00;5043825;28;20044;-81
2022/06/27 10:42:51;;;;;;;10.95;3.20;;;;;;;26.65;48.49;92716.09;5045595;28;20044;-78
2022/06/27 10:45:20;;;;;;;16.80;4.57;;;;;;;26.24;49.91;92717.13;5039657;28;20056;-80
2022/06/27 10:47:46;;;;;;;16.15;4.22;;;;;;;26.48;50.91;92726.41;5036298;28;20029;-79
2022/06/27 10:50:14;;;;;;;12.15;4.18;;;;;;;26.30;49.82;92720.97;5028049;28;20041;-78
2022/06/27 10:52:39;;;;;;;14.00;3.85;;;;;;;26.37;50.31;92721.00;5044791;28;20029;-77
2022/06/27 10:55:24;;;;;;;18.10;4.57;;;;;;;26.38;48.17;92727.88;5013743;28;20045;-76
2022/06/27 10:57:53;;;;;;;10.23;3.70;;;;;;;26.56;49.01;92716.47;5033014;28;20037;-77
2022/06/27 11:00:42;;;;;;;17.75;4.30;;;;;;;26.77;48.69;92711.13;5015196;28;20046;-77
2022/06/27 11:03:19;;;;;;;22.15;4.10;;;;;;;26.60;48.12;92716.47;5032753;28;20034;-77
2022/06/27 11:05:54;;;;;;;17.27;4.10;;;;;;;26.70;48.27;92713.78;5032581;28;20033;-77
2022/06/27 11:08:22;;;;;;;15.68;4.45;;;;;;;26.44;50.93;92719.50;5033128;28;20368;-77
2022/06/27 11:10:48;;;;;;;16.02;4.10;;;;;;;26.74;51.16;92717.25;5032859;28;20029;-77
2022/06/27 11:13:49;;;;;;;16.75;4.07;;;;;;;27.30;53.42;92719.59;5034465;28;20033;-77
2022/06/27 11:16:25;;;;;;;19.58;5.00;;;;;;;27.40;48.22;92714.22;5032579;28;20080;-77
2022/06/27 11:20:04;;;;;;;19.13;4.50;;;;;;;27.18;45.81;92708.06;5032941;28;20033;-77
2022/06/27 11:21:50;;;;;;;18.52;4.60;;;;;;;27.22;46.79;92715.38;5019944;28;20171;-76
2022/06/27 11:24:16;;;;;;;16.95;4.65;;;;;;;27.38;49.21;92704.97;5031235;28;20558;-76
2022/06/27 11:26:49;;;;;;;19.15;4.32;;;;;;;27.47;49.15;92712.66;5030194;28;20033;-77
2022/06/27 11:32:12;;;;;;;17.33;4.82;;;;;;;27.24;49.99;92711.16;5031051;28;20049;-77
2022/06/27 11:34:50;;;;;;;12.75;4.47;;;;;;;27.38;47.27;92716.53;5030842;28;20509;-76
2022/06/27 11:37:19;;;;;;;19.60;4.57;;;;;;;27.61;49.26;92707.28;5030323;28;20249;-78
2022/06/27 11:39:59;;;;;;;11.35;3.88;;;;;;;27.77;50.14;92706.84;5030942;28;20061;-79
2022/06/27 11:42:29;;;;;;;20.30;4.55;;;;;;;27.78;48.68;92698.38;5027137;28;20042;-79